Time;durP1;ratioP1;P1;durP2;ratioP2;P2;SDS_P1;SDS_P2;PMS_P1;PMS_P2;Temp;Humidity;BMP_temperature;BMP_pressure;BME280_temperature;BME280_humidity;BME280_pressure;Samples;Min_cycle;Max_cycle;Signal;HPM_P1;HPM_P2
2021/11/18 00:01:29;;;;;;;0.95;0.20;;;;;;;;;;5053720;28;20119;-72
2021/11/18 00:03:55;;;;;;;0.85;0.30;;;;;;;;;;5053441;28;20049;-70
2021/11/18 00:06:22;;;;;;;0.82;0.15;;;;;;;;;;5052929;28;20024;-71
2021/11/18 00:08:48;;;;;;;0.43;0.40;;;;;;;;;;5053732;28;20104;-71
2021/11/18 00:11:17;;;;;;;2.13;0.40;;;;;;;;;;5052244;28;20468;-70
2021/11/18 00:13:44;;;;;;;0.73;0.20;;;;;;;;;;5053701;28;20024;-71
2021/11/18 00:16:09;;;;;;;0.47;0.10;;;;;;;;;;5053275;28;20500;-70
2021/11/18 00:18:35;;;;;;;0.68;0.30;;;;;;;;;;5053569;28;20057;-71
2021/11/18 00:21:21;;;;;;;1.08;0.25;;;;;;;;;;5053363;28;20099;-72
2021/11/18 00:23:49;;;;;;;1.05;0.35;;;;;;;;;;5053209;28;20032;-71
2021/11/18 00:26:15;;;;;;;1.33;0.20;;;;;;;;;;5053494;28;20024;-71
2021/11/18 00:28:41;;;;;;;1.35;0.40;;;;;;;;;;5052115;28;20025;-71
2021/11/18 00:31:08;;;;;;;2.28;0.40;;;;;;;;;;5053637;28;20031;-70
2021/11/18 00:33:35;;;;;;;2.47;0.40;;;;;;;;;;5052543;28;20440;-70
2021/11/18 00:36:00;;;;;;;1.02;0.25;;;;;;;;;;5053214;28;20025;-71
2021/11/18 00:38:25;;;;;;;1.08;0.20;;;;;;;;;;5053222;28;20515;-70
2021/11/18 00:40:52;;;;;;;0.35;0.15;;;;;;;;;;5053354;28;20017;-70
2021/11/18 00:43:18;;;;;;;1.08;0.30;;;;;;;;;;5053157;28;20468;-72
2021/11/18 00:45:44;;;;;;;0.70;0.20;;;;;;;;;;5052118;28;20494;-70
2021/11/18 00:48:11;;;;;;;1.17;0.25;;;;;;;;;;5051963;28;20036;-72
2021/11/18 00:50:52;;;;;;;0.73;0.52;;;;;;;;;;5053054;28;20108;-70
2021/11/18 00:53:18;;;;;;;3.30;0.80;;;;;;;;;;5053147;28;20024;-69
2021/11/18 00:55:51;;;;;;;1.20;0.22;;;;;;;;;;5053316;28;20021;-71
2021/11/18 00:58:30;;;;;;;0.60;0.30;;;;;;;;;;5053112;28;20033;-72
2021/11/18 01:00:55;;;;;;;1.75;0.20;;;;;;;;;;5053085;28;20052;-70
2021/11/18 01:03:22;;;;;;;0.47;0.20;;;;;;;;;;5052971;28;20041;-70
2021/11/18 01:05:50;;;;;;;0.88;0.20;;;;;;;;;;5053225;28;20027;-72
2021/11/18 01:08:17;;;;;;;1.20;0.22;;;;;;;;;;5053242;28;20021;-70
2021/11/18 01:10:49;;;;;;;0.82;0.20;;;;;;;;;;5052925;28;20064;-71
2021/11/18 01:13:24;;;;;;;1.77;0.40;;;;;;;;;;5053244;28;20021;-73
2021/11/18 01:15:49;;;;;;;0.68;0.20;;;;;;;;;;5053212;28;20021;-70
2021/11/18 01:18:23;;;;;;;1.10;0.10;;;;;;;;;;5056812;28;20372;-71
2021/11/18 01:21:00;;;;;;;0.30;0.08;;;;;;;;;;5056917;28;20349;-71
2021/11/18 01:23:28;;;;;;;1.33;0.20;;;;;;;;;;5055558;28;20025;-70
2021/11/18 01:26:03;;;;;;;1.40;0.10;;;;;;;;;;5056827;28;20025;-70
2021/11/18 01:28:38;;;;;;;0.45;0.20;;;;;;;;;;5056730;28;20112;-71
2021/11/18 01:31:18;;;;;;;0.30;0.10;;;;;;;;;;5056648;28;20013;-72
2021/11/18 01:33:44;;;;;;;1.08;0.10;;;;;;;;;;5056590;28;20025;-70
2021/11/18 01:36:11;;;;;;;0.35;0.15;;;;;;;;;;5056584;28;20628;-70
2021/11/18 01:38:38;;;;;;;2.30;0.13;;;;;;;;;;5055474;28;20033;-72
2021/11/18 01:41:06;;;;;;;0.30;0.10;;;;;;;;;;5056440;28;20017;-70
2021/11/18 01:43:33;;;;;;;2.00;0.40;;;;;;;;;;5056387;28;20025;-71
2021/11/18 01:45:59;;;;;;;1.38;0.20;;;;;;;;;;5056248;28;20147;-73
2021/11/18 01:48:25;;;;;;;1.08;0.10;;;;;;;;;;5055112;28;20052;-70
2021/11/18 01:50:52;;;;;;;0.30;0.20;;;;;;;;;;5056277;28;20025;-71
2021/11/18 01:53:20;;;;;;;0.55;0.20;;;;;;;;;;5056146;28;20060;-70
2021/11/18 01:55:47;;;;;;;1.25;0.30;;;;;;;;;;5056043;28;20029;-69
2021/11/18 01:58:13;;;;;;;0.90;0.43;;;;;;;;;;5056092;28;20067;-71
2021/11/18 02:00:43;;;;;;;1.13;0.13;;;;;;;;;;5056168;28;20024;-69
2021/11/18 02:03:09;;;;;;;1.08;0.30;;;;;;;;;;5063436;22;20076;-70
2021/11/18 02:05:36;;;;;;;2.65;0.20;;;;;;;;;;5056293;28;20052;-72
2021/11/18 02:08:04;;;;;;;0.65;0.08;;;;;;;;;;5054720;28;20017;-69
2021/11/18 02:10:32;;;;;;;0.52;0.10;;;;;;;;;;5054895;28;20021;-71
2021/11/18 02:13:00;;;;;;;0.22;0.10;;;;;;;;;;5054510;28;20067;-70
2021/11/18 02:15:25;;;;;;;1.20;0.10;;;;;;;;;;5055742;28;20499;-70
2021/11/18 02:18:00;;;;;;;0.35;0.20;;;;;;;;;;5055614;28;20047;-71
2021/11/18 02:20:43;;;;;;;0.75;0.10;;;;;;;;;;5054926;28;20510;-71
2021/11/18 02:23:12;;;;;;;1.27;0.20;;;;;;;;;;5055775;28;20029;-71
2021/11/18 02:25:46;;;;;;;1.63;0.13;;;;;;;;;;5055986;28;20017;-71
2021/11/18 02:28:14;;;;;;;0.30;0.20;;;;;;;;;;5054797;28;20391;-71
2021/11/18 02:30:39;;;;;;;0.70;0.35;;;;;;;;;;5055759;28;20130;-71
2021/11/18 02:33:10;;;;;;;1.10;0.10;;;;;;;;;;5055866;28;20025;-70
2021/11/18 02:35:39;;;;;;;0.70;0.10;;;;;;;;;;5055358;28;20029;-71
2021/11/18 02:38:05;;;;;;;1.83;0.50;;;;;;;;;;5055706;28;20017;-71
2021/11/18 02:40:32;;;;;;;1.45;0.32;;;;;;;;;;5055693;28;20017;-71
2021/11/18 02:42:59;;;;;;;1.60;0.50;;;;;;;;;;5055400;28;20024;-70
2021/11/18 02:45:28;;;;;;;1.55;0.08;;;;;;;;;;5055424;28;20368;-70
2021/11/18 02:47:55;;;;;;;1.55;0.10;;;;;;;;;;5053942;28;20468;-71
2021/11/18 02:50:26;;;;;;;1.15;0.45;;;;;;;;;;5055260;28;20543;-70
2021/11/18 02:53:03;;;;;;;0.85;0.10;;;;;;;;;;5055267;28;20028;-70
2021/11/18 02:55:33;;;;;;;0.80;0.20;;;;;;;;;;5055141;28;20043;-70
2021/11/18 02:57:58;;;;;;;0.77;0.17;;;;;;;;;;5055157;28;20464;-71
2021/11/18 03:00:26;;;;;;;0.55;0.10;;;;;;;;;;5055121;28;20021;-71
2021/11/18 03:02:51;;;;;;;0.77;0.20;;;;;;;;;;5054815;28;20045;-70
2021/11/18 03:05:19;;;;;;;2.42;0.25;;;;;;;;;;5054968;28;20099;-71
2021/11/18 03:07:48;;;;;;;0.98;0.05;;;;;;;;;;5054966;28;20029;-71
2021/11/18 03:10:17;;;;;;;1.45;0.30;;;;;;;;;;5054799;28;20530;-71
2021/11/18 03:12:43;;;;;;;0.85;0.20;;;;;;;;;;5055015;28;20029;-71
2021/11/18 03:15:10;;;;;;;2.25;0.10;;;;;;;;;;5054586;28;20056;-70
2021/11/18 03:17:36;;;;;;;0.65;0.20;;;;;;;;;;5054710;28;20100;-71
2021/11/18 03:20:04;;;;;;;0.47;0.22;;;;;;;;;;5054731;28;20099;-71
2021/11/18 03:22:29;;;;;;;0.45;0.10;;;;;;;;;;5053419;28;20021;-71
2021/11/18 03:24:56;;;;;;;0.40;0.10;;;;;;;;;;5054603;28;20028;-70
2021/11/18 03:27:21;;;;;;;0.95;0.10;;;;;;;;;;5054465;28;20735;-70
2021/11/18 03:29:46;;;;;;;0.85;0.10;;;;;;;;;;5054749;28;20025;-71
2021/11/18 03:32:22;;;;;;;1.10;0.10;;;;;;;;;;5053510;28;20532;-71
2021/11/18 03:34:48;;;;;;;1.40;0.20;;;;;;;;;;5054542;28;20024;-71
2021/11/18 03:37:40;;;;;;;1.17;0.40;;;;;;;;;;5053125;28;20021;-71
2021/11/18 03:40:06;;;;;;;0.75;0.05;;;;;;;;;;5012387;28;20029;-70
2021/11/18 03:42:31;;;;;;;0.77;0.10;;;;;;;;;;5012671;28;20034;-70
2021/11/18 03:44:56;;;;;;;2.30;0.30;;;;;;;;;;5012796;28;20030;-71
2021/11/18 03:47:23;;;;;;;2.30;0.33;;;;;;;;;;5012715;28;20389;-71
2021/11/18 03:49:50;;;;;;;1.02;0.10;;;;;;;;;;4996055;28;20612;-71
2021/11/18 03:52:17;;;;;;;1.48;0.13;;;;;;;;;;5012442;28;20531;-70
2021/11/18 03:54:44;;;;;;;0.82;0.20;;;;;;;;;;5011919;28;20034;-69
2021/11/18 03:57:09;;;;;;;0.57;0.10;;;;;;;;;;5012208;28;20030;-69
2021/11/18 03:59:35;;;;;;;1.17;0.17;;;;;;;;;;5012107;28;20061;-71
2021/11/18 04:02:01;;;;;;;1.15;0.15;;;;;;;;;;5011145;28;20042;-69
2021/11/18 04:04:33;;;;;;;1.77;0.25;;;;;;;;;;5011962;28;20432;-70
2021/11/18 04:07:00;;;;;;;1.02;0.20;;;;;;;;;;5012022;28;20085;-71
2021/11/18 04:09:25;;;;;;;0.28;0.20;;;;;;;;;;5012002;28;20018;-69
2021/11/18 04:11:52;;;;;;;0.43;0.10;;;;;;;;;;5011832;28;20044;-70
2021/11/18 04:14:22;;;;;;;0.70;0.17;;;;;;;;;;5011780;28;20054;-72
2021/11/18 04:16:48;;;;;;;0.40;0.10;;;;;;;;;;5031183;28;20037;-69
2021/11/18 04:19:14;;;;;;;0.47;0.10;;;;;;;;;;5053607;28;20017;-69
2021/11/18 04:21:41;;;;;;;0.38;0.22;;;;;;;;;;5053605;28;20452;-71
2021/11/18 04:24:07;;;;;;;1.30;0.38;;;;;;;;;;5053407;28;20025;-70
2021/11/18 04:26:32;;;;;;;1.70;0.22;;;;;;;;;;5053580;28;20031;-70
2021/11/18 04:28:58;;;;;;;0.40;0.10;;;;;;;;;;5053367;28;20097;-71
2021/11/18 04:31:24;;;;;;;1.10;0.22;;;;;;;;;;5051688;28;20024;-69
2021/11/18 04:33:51;;;;;;;0.52;0.15;;;;;;;;;;5053438;28;20349;-70
2021/11/18 04:36:17;;;;;;;1.00;0.13;;;;;;;;;;5053284;28;20028;-71
2021/11/18 04:38:46;;;;;;;1.05;0.20;;;;;;;;;;5052235;28;20021;-70
2021/11/18 04:41:13;;;;;;;0.50;0.20;;;;;;;;;;5053286;28;20016;-74
2021/11/18 04:43:44;;;;;;;0.40;0.10;;;;;;;;;;5053111;28;20023;-72
2021/11/18 04:46:10;;;;;;;1.17;0.13;;;;;;;;;;5053287;28;20025;-69
2021/11/18 04:48:36;;;;;;;0.10;0.00;;;;;;;;;;5052213;28;20028;-71
2021/11/18 04:51:03;;;;;;;1.45;0.47;;;;;;;;;;5053646;28;20036;-72
2021/11/18 04:53:29;;;;;;;1.90;0.20;;;;;;;;;;5057123;28;20094;-70
2021/11/18 04:55:56;;;;;;;0.47;0.10;;;;;;;;;;5057264;28;20371;-71
2021/11/18 04:58:21;;;;;;;0.20;0.10;;;;;;;;;;5055846;28;20425;-69
2021/11/18 05:00:50;;;;;;;0.00;0.00;;;;;;;;;;5057187;28;20079;-69
2021/11/18 05:03:15;;;;;;;0.82;0.10;;;;;;;;;;5057019;28;20091;-71
2021/11/18 05:05:42;;;;;;;0.15;0.03;;;;;;;;;;5056978;28;20424;-69
2021/11/18 05:08:07;;;;;;;0.75;0.10;;;;;;;;;;5056911;28;20031;-70
2021/11/18 05:10:33;;;;;;;0.55;0.10;;;;;;;;;;5056798;28;20100;-71
2021/11/18 05:12:58;;;;;;;0.95;0.38;;;;;;;;;;5056890;28;20028;-69
2021/11/18 05:15:26;;;;;;;0.98;0.00;;;;;;;;;;5056651;28;20025;-71
2021/11/18 05:18:00;;;;;;;1.00;0.10;;;;;;;;;;5056685;28;20021;-72
2021/11/18 05:20:27;;;;;;;0.22;0.10;;;;;;;;;;5055624;28;20422;-70
2021/11/18 05:22:53;;;;;;;0.63;0.05;;;;;;;;;;5056681;28;20096;-71
2021/11/18 05:25:21;;;;;;;1.83;0.38;;;;;;;;;;5056673;28;20071;-72
2021/11/18 05:27:47;;;;;;;1.92;0.40;;;;;;;;;;5056583;28;20029;-70
2021/11/18 05:30:13;;;;;;;1.10;0.20;;;;;;;;;;5056387;28;20105;-71
2021/11/18 05:32:39;;;;;;;0.60;0.20;;;;;;;;;;5056680;28;20017;-71
2021/11/18 05:35:06;;;;;;;3.90;0.85;;;;;;;;;;5056312;28;20153;-70
2021/11/18 05:37:31;;;;;;;0.70;0.00;;;;;;;;;;5056585;28;20028;-71
2021/11/18 05:40:08;;;;;;;0.80;0.10;;;;;;;;;;5055105;28;20367;-69
2021/11/18 05:42:33;;;;;;;0.95;0.22;;;;;;;;;;5056282;28;20052;-69
2021/11/18 05:45:02;;;;;;;1.42;0.30;;;;;;;;;;5056123;28;20498;-71
2021/11/18 05:47:36;;;;;;;0.57;0.20;;;;;;;;;;5056325;28;20052;-71
2021/11/18 05:50:01;;;;;;;0.90;0.30;;;;;;;;;;5056099;28;20601;-69
2021/11/18 05:52:27;;;;;;;1.83;0.20;;;;;;;;;;5056085;28;20046;-71
2021/11/18 05:54:54;;;;;;;0.60;0.00;;;;;;;;;;5056246;28;20025;-73
2021/11/18 05:57:22;;;;;;;0.60;0.20;;;;;;;;;;5055919;28;20021;-70
2021/11/18 05:59:49;;;;;;;1.70;0.40;;;;;;;;;;5056192;28;20024;-71
2021/11/18 06:02:15;;;;;;;0.75;0.10;;;;;;;;;;5054139;28;20045;-69
2021/11/18 06:04:40;;;;;;;1.17;0.20;;;;;;;;;;5055219;28;20529;-70
2021/11/18 06:07:05;;;;;;;0.50;0.20;;;;;;;;;;5055710;28;20035;-71
2021/11/18 06:09:30;;;;;;;3.10;0.28;;;;;;;;;;5055814;28;20490;-69
2021/11/18 06:11:56;;;;;;;1.80;0.10;;;;;;;;;;5055798;28;20032;-70
2021/11/18 06:14:23;;;;;;;0.17;0.00;;;;;;;;;;5055930;28;20017;-72
2021/11/18 06:16:48;;;;;;;0.30;0.00;;;;;;;;;;5055562;28;20028;-70
2021/11/18 06:19:15;;;;;;;1.92;0.52;;;;;;;;;;5054617;28;20017;-70
2021/11/18 06:21:47;;;;;;;3.67;0.35;;;;;;;;;;5055665;28;20024;-72
2021/11/18 06:24:13;;;;;;;2.30;0.10;;;;;;;;;;5055217;28;20017;-70
2021/11/18 06:26:39;;;;;;;1.27;0.20;;;;;;;;;;5054349;28;20063;-71
2021/11/18 06:29:06;;;;;;;2.25;0.20;;;;;;;;;;5055181;28;20017;-71
2021/11/18 06:31:31;;;;;;;1.27;0.13;;;;;;;;;;5054940;28;20388;-70
2021/11/18 06:33:58;;;;;;;0.60;0.10;;;;;;;;;;5055046;28;20013;-71
2021/11/18 06:36:23;;;;;;;0.63;0.20;;;;;;;;;;5055317;28;20376;-70
2021/11/18 06:38:49;;;;;;;0.98;0.10;;;;;;;;;;5055108;28;20009;-70
2021/11/18 06:41:15;;;;;;;0.75;0.13;;;;;;;;;;5055441;28;20017;-71
2021/11/18 06:43:41;;;;;;;1.70;0.10;;;;;;;;;;5055017;28;20017;-70
2021/11/18 06:46:06;;;;;;;0.28;0.10;;;;;;;;;;5055189;28;20369;-70
2021/11/18 06:48:32;;;;;;;2.35;0.30;;;;;;;;;;5055222;28;20051;-72
2021/11/18 06:51:03;;;;;;;1.58;0.43;;;;;;;;;;5054822;28;20420;-70
2021/11/18 06:53:30;;;;;;;1.65;0.20;;;;;;;;;;5055135;28;20017;-70
2021/11/18 06:55:56;;;;;;;1.25;0.10;;;;;;;;;;5054904;28;20032;-71
2021/11/18 06:58:21;;;;;;;0.00;0.00;;;;;;;;;;5053656;28;20092;-69
2021/11/18 07:00:46;;;;;;;0.82;0.17;;;;;;;;;;5054790;28;20021;-71
2021/11/18 07:03:11;;;;;;;1.45;0.28;;;;;;;;;;5054413;28;20045;-69
2021/11/18 07:05:37;;;;;;;0.13;0.00;;;;;;;;;;5054701;28;20032;-69
2021/11/18 07:08:04;;;;;;;0.95;0.30;;;;;;;;;;5054597;28;20375;-71
2021/11/18 07:10:30;;;;;;;0.25;0.10;;;;;;;;;;5053003;28;20025;-69
2021/11/18 07:12:55;;;;;;;1.23;0.17;;;;;;;;;;5054365;28;20321;-69
2021/11/18 07:15:21;;;;;;;3.92;0.45;;;;;;;;;;5054147;28;20017;-71
2021/11/18 07:17:48;;;;;;;1.27;0.38;;;;;;;;;;5055388;28;20378;-71
2021/11/18 07:20:14;;;;;;;1.48;0.13;;;;;;;;;;5054074;28;20796;-70
2021/11/18 07:22:41;;;;;;;1.42;0.13;;;;;;;;;;5060495;28;20060;-70
2021/11/18 07:25:08;;;;;;;0.20;0.00;;;;;;;;;;5060972;28;20024;-70
2021/11/18 07:27:33;;;;;;;1.08;0.20;;;;;;;;;;5074303;28;20024;-71
2021/11/18 07:30:00;;;;;;;0.40;0.10;;;;;;;;;;5073886;28;20034;-70
2021/11/18 07:32:25;;;;;;;1.23;0.00;;;;;;;;;;5054093;28;20116;-69
2021/11/18 07:34:51;;;;;;;1.65;0.10;;;;;;;;;;5053293;28;20120;-72
2021/11/18 07:37:16;;;;;;;0.70;0.20;;;;;;;;;;5052773;28;20104;-70
2021/11/18 07:39:42;;;;;;;0.85;0.20;;;;;;;;;;5071682;28;20028;-70
2021/11/18 07:42:07;;;;;;;1.17;0.22;;;;;;;;;;5054945;28;20016;-71
2021/11/18 07:44:32;;;;;;;1.00;0.17;;;;;;;;;;5062238;28;20023;-69
2021/11/18 07:46:57;;;;;;;0.20;0.10;;;;;;;;;;5061977;28;20082;-72
2021/11/18 07:49:24;;;;;;;0.93;0.28;;;;;;;;;;5052522;28;20024;-71
2021/11/18 07:51:51;;;;;;;1.15;0.05;;;;;;;;;;5053569;28;20028;-70
2021/11/18 07:54:16;;;;;;;0.88;0.20;;;;;;;;;;5053859;28;20021;-71
2021/11/18 07:56:44;;;;;;;0.28;0.10;;;;;;;;;;5053880;28;20067;-70
2021/11/18 07:59:10;;;;;;;1.35;0.10;;;;;;;;;;5053533;28;20017;-69
2021/11/18 08:01:39;;;;;;;1.73;0.20;;;;;;;;;;5052327;28;20041;-71
2021/11/18 08:04:04;;;;;;;0.70;0.20;;;;;;;;;;5053263;28;20013;-69
2021/11/18 08:06:30;;;;;;;1.02;0.10;;;;;;;;;;5053629;28;20032;-70
2021/11/18 08:08:57;;;;;;;0.82;0.20;;;;;;;;;;5053558;28;20021;-71
2021/11/18 08:11:30;;;;;;;0.32;0.10;;;;;;;;;;5053582;28;20025;-70
2021/11/18 08:13:56;;;;;;;0.28;0.00;;;;;;;;;;5053751;28;20025;-70
2021/11/18 08:16:22;;;;;;;0.88;0.10;;;;;;;;;;5073414;28;20358;-72
2021/11/18 08:18:50;;;;;;;1.48;0.20;;;;;;;;;;5073589;28;20015;-70
2021/11/18 08:21:15;;;;;;;0.47;0.13;;;;;;;;;;5073440;28;20107;-71
2021/11/18 08:23:40;;;;;;;0.88;0.10;;;;;;;;;;5056774;28;20140;-70
2021/11/18 08:26:08;;;;;;;1.48;0.10;;;;;;;;;;5051469;28;20021;-70
2021/11/18 08:28:42;;;;;;;2.40;0.52;;;;;;;;;;5052066;28;20465;-71
2021/11/18 08:31:07;;;;;;;;;;;;;;;;;;5053599;28;20021;-70
2021/11/18 08:33:32;;;;;;;1.20;0.50;;;;;;;;;;5053415;28;19911;-70
2021/11/18 08:35:58;;;;;;;1.73;0.43;;;;;;;;;;5053080;28;20105;-72
2021/11/18 08:38:23;;;;;;;0.45;0.10;;;;;;;;;;5053282;28;20254;-70
2021/11/18 08:40:51;;;;;;;0.57;0.17;;;;;;;;;;5053370;28;20417;-71
2021/11/18 08:43:25;;;;;;;1.45;0.20;;;;;;;;;;5053270;28;20029;-71
2021/11/18 08:45:51;;;;;;;3.00;0.45;;;;;;;;;;5053260;28;20099;-69
2021/11/18 08:48:16;;;;;;;2.13;0.30;;;;;;;;;;5053298;28;20127;-71
2021/11/18 08:50:45;;;;;;;1.95;0.30;;;;;;;;;;5053101;28;20047;-71
2021/11/18 08:53:12;;;;;;;1.00;0.10;;;;;;;;;;5052983;28;20025;-70
2021/11/18 08:55:39;;;;;;;1.90;0.30;;;;;;;;;;5057654;28;20078;-71
2021/11/18 08:58:05;;;;;;;0.55;0.10;;;;;;;;;;5073035;28;20020;-69
2021/11/18 09:00:34;;;;;;;1.58;0.10;;;;;;;;;;5073008;28;20068;-70
2021/11/18 09:02:59;;;;;;;1.00;0.20;;;;;;;;;;5072900;28;20047;-71
2021/11/18 09:05:26;;;;;;;1.10;0.30;;;;;;;;;;5072821;28;20025;-70
2021/11/18 09:07:52;;;;;;;2.20;0.25;;;;;;;;;;5073124;28;20024;-70
2021/11/18 09:10:18;;;;;;;0.38;0.10;;;;;;;;;;5072996;28;20529;-71
2021/11/18 09:12:44;;;;;;;0.50;0.20;;;;;;;;;;5073194;28;20048;-70
2021/11/18 09:15:11;;;;;;;0.35;0.10;;;;;;;;;;5058438;28;20104;-70
2021/11/18 09:17:37;;;;;;;1.17;0.30;;;;;;;;;;5053068;28;20036;-72
2021/11/18 09:20:04;;;;;;;0.88;0.40;;;;;;;;;;5051647;28;20021;-70
2021/11/18 09:22:36;;;;;;;1.20;0.10;;;;;;;;;;5054127;28;20109;-71
2021/11/18 09:25:03;;;;;;;0.40;0.03;;;;;;;;;;5055592;28;20025;-72
2021/11/18 09:27:33;;;;;;;1.23;0.10;;;;;;;;;;5071001;28;20020;-70
2021/11/18 09:30:01;;;;;;;1.45;0.45;;;;;;;;;;5059276;28;20016;-71
2021/11/18 09:32:29;;;;;;;0.70;0.13;;;;;;;;;;5055554;28;20052;-72
2021/11/18 09:34:55;;;;;;;1.80;0.17;;;;;;;;;;5052850;28;20487;-70
2021/11/18 09:37:20;;;;;;;1.63;0.38;;;;;;;;;;5065713;28;20056;-71
2021/11/18 09:39:45;;;;;;;0.90;0.10;;;;;;;;;;5069097;28;20265;-70
2021/11/18 09:42:16;;;;;;;1.67;0.28;;;;;;;;;;5070264;28;20021;-70
2021/11/18 09:44:49;;;;;;;1.45;0.60;;;;;;;;;;5071905;28;20099;-72
2021/11/18 09:47:18;;;;;;;1.33;0.10;;;;;;;;;;5056473;28;20383;-72
2021/11/18 09:49:44;;;;;;;1.55;0.10;;;;;;;;;;5068432;28;20532;-70
2021/11/18 09:52:25;;;;;;;1.30;0.43;;;;;;;;;;5076170;28;20070;-70
2021/11/18 09:54:58;;;;;;;1.13;0.10;;;;;;;;;;5058481;28;20095;-72
2021/11/18 09:57:40;;;;;;;1.33;0.30;;;;;;;;;;5051233;28;20031;-70
2021/11/18 10:00:17;;;;;;;0.30;0.10;;;;;;;;;;5066171;28;20016;-71
2021/11/18 10:02:51;;;;;;;1.15;0.10;;;;;;;;;;5055786;28;20053;-70
2021/11/18 10:05:26;;;;;;;0.43;0.10;;;;;;;;;;5071499;28;20107;-69
2021/11/18 10:07:54;;;;;;;0.85;0.25;;;;;;;;;;5075744;28;20063;-70
2021/11/18 10:10:38;;;;;;;0.75;0.05;;;;;;;;;;5074848;28;20137;-71
2021/11/18 10:13:14;;;;;;;1.95;0.38;;;;;;;;;;5073621;28;20115;-70
2021/11/18 10:15:43;;;;;;;1.80;0.30;;;;;;;;;;5068745;28;20033;-69
2021/11/18 10:18:19;;;;;;;0.68;0.10;;;;;;;;;;5071466;28;20036;-70
2021/11/18 10:20:46;;;;;;;1.70;0.32;;;;;;;;;;5062972;28;20037;-70
2021/11/18 10:23:15;;;;;;;0.30;0.10;;;;;;;;;;5054232;28;20025;-69
2021/11/18 10:25:40;;;;;;;0.63;0.20;;;;;;;;;;5055353;28;20025;-69
2021/11/18 10:28:20;;;;;;;0.75;0.20;;;;;;;;;;5055323;28;20021;-70
2021/11/18 10:30:50;;;;;;;0.52;0.10;;;;;;;;;;5055462;28;20020;-71
2021/11/18 10:33:17;;;;;;;0.22;0.10;;;;;;;;;;5055364;28;20013;-69
2021/11/18 10:35:46;;;;;;;0.32;0.00;;;;;;;;;;5054042;28;20036;-71
2021/11/18 10:38:12;;;;;;;2.00;0.20;;;;;;;;;;5054014;28;20058;-70
2021/11/18 10:40:49;;;;;;;1.00;0.20;;;;;;;;;;5054078;28;20017;-69
2021/11/18 10:43:17;;;;;;;1.80;0.30;;;;;;;;;;5054867;28;20017;-70
2021/11/18 10:45:44;;;;;;;0.40;0.08;;;;;;;;;;5054099;28;20703;-71
2021/11/18 10:48:16;;;;;;;0.82;0.10;;;;;;;;;;5054566;28;20048;-68
2021/11/18 10:50:47;;;;;;;0.98;0.10;;;;;;;;;;5066461;28;20065;-70
2021/11/18 10:53:32;;;;;;;1.17;0.32;;;;;;;;;;5058866;28;20017;-70
2021/11/18 10:56:29;;;;;;;0.82;0.20;;;;;;;;;;5054443;28;20107;-69
2021/11/18 10:59:00;;;;;;;0.25;0.03;;;;;;;;;;5011427;28;20108;-68
2021/11/18 11:01:26;;;;;;;0.82;0.20;;;;;;;;;;5012672;28;20571;-69
2021/11/18 11:03:52;;;;;;;0.57;0.17;;;;;;;;;;5012947;28;20022;-70
2021/11/18 11:06:17;;;;;;;0.55;0.00;;;;;;;;;;5012638;28;20041;-69
2021/11/18 11:08:45;;;;;;;0.20;0.10;;;;;;;;;;5013058;28;20177;-68
2021/11/18 11:11:26;;;;;;;1.08;0.20;;;;;;;;;;4996196;28;20718;-70
2021/11/18 11:13:52;;;;;;;1.65;0.45;;;;;;;;;;4996380;28;20034;-68
2021/11/18 11:16:27;;;;;;;0.75;0.10;;;;;;;;;;5012618;28;20601;-68
2021/11/18 11:19:02;;;;;;;0.65;0.00;;;;;;;;;;5012660;28;20029;-71
2021/11/18 11:21:33;;;;;;;0.40;0.17;;;;;;;;;;4996208;28;20504;-69
2021/11/18 11:24:01;;;;;;;0.95;0.20;;;;;;;;;;5012426;28;20026;-68
2021/11/18 11:26:46;;;;;;;0.57;0.10;;;;;;;;;;5012509;28;20034;-70
2021/11/18 11:29:30;;;;;;;1.83;0.20;;;;;;;;;;5012059;28;20505;-71
2021/11/18 11:31:58;;;;;;;0.85;0.10;;;;;;;;;;5012114;28;20022;-69
2021/11/18 11:34:31;;;;;;;0.75;0.15;;;;;;;;;;5031180;28;20082;-69
2021/11/18 11:37:19;;;;;;;2.15;0.10;;;;;;;;;;5054289;28;20384;-70
2021/11/18 11:40:06;;;;;;;0.82;0.10;;;;;;;;;;5048174;28;20039;-70
2021/11/18 11:42:43;;;;;;;0.20;0.10;;;;;;;;;;5053801;28;20491;-69
2021/11/18 11:45:14;;;;;;;1.08;0.20;;;;;;;;;;5053799;28;20115;-68
2021/11/18 11:47:40;;;;;;;1.65;0.10;;;;;;;;;;5053997;28;20032;-69
2021/11/18 11:50:16;;;;;;;0.75;0.32;;;;;;;;;;5053868;28;20029;-69
2021/11/18 11:52:41;;;;;;;0.40;0.00;;;;;;;;;;5053837;28;20059;-68
2021/11/18 11:55:13;;;;;;;1.77;0.10;;;;;;;;;;5052254;28;20017;-69
2021/11/18 11:57:48;;;;;;;1.80;0.20;;;;;;;;;;5060862;28;20037;-70
2021/11/18 12:00:25;;;;;;;0.75;0.10;;;;;;;;;;5066553;28;20029;-68
2021/11/18 12:02:56;;;;;;;0.98;0.15;;;;;;;;;;5041391;28;20082;-68
2021/11/18 12:05:41;;;;;;;1.15;0.20;;;;;;;;;;5053670;28;20017;-68
2021/11/18 12:08:12;;;;;;;0.55;0.17;;;;;;;;;;5052965;28;20091;-69
2021/11/18 12:10:58;;;;;;;0.98;0.00;;;;;;;;;;5067449;28;20028;-69
2021/11/18 12:13:46;;;;;;;3.70;1.60;;;;;;;;;;5073564;28;20016;-64
2021/11/18 12:16:20;;;;;;;294.08;183.25;;;;;;;;;;5071392;28;20024;-66
2021/11/18 12:18:51;;;;;;;262.92;159.13;;;;;;;;;;5056606;28;20024;-67
2021/11/18 12:21:18;;;;;;;169.55;105.32;;;;;;;;;;5071491;28;20036;-67
2021/11/18 12:23:58;;;;;;;133.15;86.10;;;;;;;;;;5073085;28;20097;-66
2021/11/18 12:26:23;;;;;;;90.80;61.35;;;;;;;;;;5073159;28;20024;-67
2021/11/18 12:29:00;;;;;;;72.13;49.05;;;;;;;;;;5072074;28;20078;-67
2021/11/18 12:31:30;;;;;;;52.92;37.33;;;;;;;;;;5033093;28;20064;-66
2021/11/18 12:33:57;;;;;;;41.78;30.17;;;;;;;;;;5032582;28;20052;-65
2021/11/18 12:36:30;;;;;;;33.47;24.98;;;;;;;;;;5036866;28;20047;-68
2021/11/18 12:39:28;;;;;;;25.33;19.02;;;;;;;;;;5047660;28;20059;-66
2021/11/18 12:42:12;;;;;;;17.95;14.05;;;;;;;;;;4987704;28;20026;-67
2021/11/18 12:44:47;;;;;;;16.77;12.43;;;;;;;;;;4989116;28;20109;-67
2021/11/18 12:47:12;;;;;;;10.68;8.55;;;;;;;;;;4990344;28;20037;-69
2021/11/18 12:49:37;;;;;;;8.63;7.67;;;;;;;;;;4988647;28;20022;-67
2021/11/18 12:52:20;;;;;;;7.87;5.90;;;;;;;;;;4988721;28;20291;-67
2021/11/18 12:54:45;;;;;;;5.85;5.15;;;;;;;;;;4990407;28;20264;-67
2021/11/18 12:57:11;;;;;;;5.47;3.78;;;;;;;;;;4990726;28;20022;-68
2021/11/18 12:59:43;;;;;;;5.20;3.20;;;;;;;;;;4990682;28;20029;-67
2021/11/18 13:02:14;;;;;;;2.95;2.63;;;;;;;;;;4989513;28;20516;-68
2021/11/18 13:04:40;;;;;;;3.45;2.35;;;;;;;;;;4990992;28;20105;-68
2021/11/18 13:07:07;;;;;;;3.22;2.25;;;;;;;;;;5002298;28;20048;-67
2021/11/18 13:09:50;;;;;;;2.53;1.83;;;;;;;;;;4990322;28;20371;-67
2021/11/18 13:12:27;;;;;;;1.95;1.50;;;;;;;;;;4983883;28;20022;-68
2021/11/18 13:15:12;;;;;;;1.83;1.38;;;;;;;;;;4994859;28;20022;-66
2021/11/18 13:17:42;;;;;;;2.33;1.52;;;;;;;;;;5018834;28;20112;-67
2021/11/18 13:20:16;;;;;;;1.73;1.20;;;;;;;;;;5055317;28;20451;-67
2021/11/18 13:22:43;;;;;;;3.58;0.93;;;;;;;;;;5067812;28;20111;-68
2021/11/18 13:25:12;;;;;;;2.58;1.15;;;;;;;;;;5054992;28;20107;-66
2021/11/18 13:28:12;;;;;;;1.55;0.88;;;;;;;;;;5055175;28;20024;-65
2021/11/18 13:30:39;;;;;;;2.70;0.90;;;;;;;;;;5003417;28;20109;-67
2021/11/18 13:33:30;;;;;;;1.58;0.73;;;;;;;;;;5009987;28;20052;-68
2021/11/18 13:36:04;;;;;;;1.38;0.40;;;;;;;;;;5011352;28;20022;-68
2021/11/18 13:38:31;;;;;;;0.45;0.30;;;;;;;;;;5000012;28;20034;-66
2021/11/18 13:40:57;;;;;;;1.13;0.40;;;;;;;;;;5022449;28;20029;-70
2021/11/18 13:43:26;;;;;;;0.85;0.30;;;;;;;;;;5012582;28;20528;-68
2021/11/18 13:46:02;;;;;;;0.32;0.28;;;;;;;;;;5007471;28;20038;-67
2021/11/18 13:48:42;;;;;;;0.60;0.30;;;;;;;;;;5010638;28;20116;-70
2021/11/18 13:51:08;;;;;;;0.85;0.38;;;;;;;;;;5011244;28;20048;-67
2021/11/18 13:53:54;;;;;;;2.55;0.63;;;;;;;;;;5010994;28;20416;-66
2021/11/18 13:56:26;;;;;;;2.60;0.50;;;;;;;;;;5012405;28;20067;-66
2021/11/18 13:58:53;;;;;;;0.40;0.20;;;;;;;;;;5019017;28;20081;-67
2021/11/18 14:01:22;;;;;;;1.00;0.22;;;;;;;;;;5014741;28;20038;-66
2021/11/18 14:03:48;;;;;;;1.58;0.30;;;;;;;;;;5019539;28;20029;-64
2021/11/18 14:06:34;;;;;;;1.25;0.30;;;;;;;;;;5056583;28;20036;-65
2021/11/18 14:09:04;;;;;;;1.70;0.70;;;;;;;;;;5054090;28;20040;-65
2021/11/18 14:11:33;;;;;;;0.98;0.10;;;;;;;;;;5052980;28;20108;-61
2021/11/18 14:14:00;;;;;;;1.55;0.52;;;;;;;;;;5058606;28;20025;-63
2021/11/18 14:16:39;;;;;;;1.17;0.75;;;;;;;;;;5054822;28;20025;-61
2021/11/18 14:19:14;;;;;;;1.48;0.35;;;;;;;;;;5053363;28;20024;-62
2021/11/18 14:21:58;;;;;;;0.82;0.20;;;;;;;;;;5055151;28;20039;-61
2021/11/18 14:24:29;;;;;;;0.88;0.45;;;;;;;;;;5052035;28;20475;-61
2021/11/18 14:26:57;;;;;;;1.13;0.20;;;;;;;;;;5050298;28;20459;-62
2021/11/18 14:29:26;;;;;;;1.17;0.40;;;;;;;;;;5055445;28;20487;-61
2021/11/18 14:31:53;;;;;;;0.85;0.55;;;;;;;;;;5054177;28;20025;-61
2021/11/18 14:34:24;;;;;;;1.27;0.25;;;;;;;;;;5047694;28;20050;-62
2021/11/18 14:36:52;;;;;;;2.47;0.40;;;;;;;;;;5053918;28;20129;-61
2021/11/18 14:39:28;;;;;;;1.70;0.32;;;;;;;;;;5060982;28;20067;-62
2021/11/18 14:42:12;;;;;;;1.27;0.50;;;;;;;;;;5057198;28;20017;-62
2021/11/18 14:44:41;;;;;;;1.05;0.65;;;;;;;;;;5055281;28;20063;-61
2021/11/18 14:47:28;;;;;;;1.05;0.35;;;;;;;;;;5055594;28;20029;-61
2021/11/18 14:50:02;;;;;;;1.58;0.50;;;;;;;;;;5067402;28;20029;-61
2021/11/18 14:52:30;;;;;;;1.17;0.30;;;;;;;;;;5053611;28;20028;-62
2021/11/18 14:55:07;;;;;;;1.27;0.20;;;;;;;;;;5055080;28;20024;-61
2021/11/18 14:57:32;;;;;;;1.27;0.20;;;;;;;;;;5062492;28;20021;-62